Time;durP1;ratioP1;P1;durP2;ratioP2;P2;SDS_P1;SDS_P2;PMS_P1;PMS_P2;Temp;Humidity;BMP_temperature;BMP_pressure;BME280_temperature;BME280_humidity;BME280_pressure;Samples;Min_cycle;Max_cycle;Signal;HPM_P1;HPM_P2
2022/09/21 00:00:57;;;;;;;;;;;;;;;;;;2132311;27;19927;-46
2022/09/21 00:01:59;;;;;;;;;;;;;;;;;;2132063;27;19923;-45
2022/09/21 00:02:59;;;;;;;;;;;;;;;;;;2132224;27;19930;-45
2022/09/21 00:04:00;;;;;;;;;;;;;;;;;;2132129;27;19997;-45
2022/09/21 00:05:01;;;;;;;;;;;;;;;;;;2132317;27;19982;-45
2022/09/21 00:06:02;;;;;;;;;;;;;;;;;;2132121;27;19923;-45
2022/09/21 00:07:03;;;;;;;;;;;;;;;;;;2132138;27;19929;-45
2022/09/21 00:08:03;;;;;;;;;;;;;;;;;;2132119;27;20273;-45
2022/09/21 00:09:04;;;;;;;;;;;;;;;;;;2132131;27;20037;-45
2022/09/21 00:10:05;;;;;;;;;;;;;;;;;;2132071;27;19927;-46
2022/09/21 00:11:07;;;;;;;;;;;;;;;;;;2132053;27;19923;-45
2022/09/21 00:12:08;;;;;;;;;;;;;;;;;;2132124;27;20295;-46
2022/09/21 00:13:10;;;;;;;;;;;;;;;;;;2132145;27;19923;-45
2022/09/21 00:14:11;;;;;;;;;;;;;;;;;;2132188;27;19923;-46
2022/09/21 00:15:12;;;;;;;;;;;;;;;;;;2131994;27;19923;-45
2022/09/21 00:16:13;;;;;;;;;;;;;;;;;;2132207;27;20375;-45
2022/09/21 00:17:13;;;;;;;;;;;;;;;;;;2132008;27;19992;-45
2022/09/21 00:18:14;;;;;;;;;;;;;;;;;;2132294;27;19930;-45
2022/09/21 00:19:16;;;;;;;;;;;;;;;;;;2132288;27;19927;-45
2022/09/21 00:20:18;;;;;;;;;;;;;;;;;;2131944;27;19930;-46
2022/09/21 00:21:20;;;;;;;;;;;;;;;;;;2132212;27;19930;-42
2022/09/21 00:22:20;;;;;;;;;;;;;;;;;;2131960;27;19923;-42
2022/09/21 00:23:22;;;;;;;;;;;;;;;;;;2132118;27;20265;-42
2022/09/21 00:24:23;;;;;;;;;;;;;;;;;;2132004;27;20291;-42
2022/09/21 00:25:24;;;;;;;;;;;;;;;;;;2132047;27;19946;-43
2022/09/21 00:26:25;;;;;;;;;;;;;;;;;;2131985;27;20054;-42
2022/09/21 00:27:28;;;;;;;;;;;;;;;;;;2132071;27;19934;-42
2022/09/21 00:28:29;;;;;;;;;;;;;;;;;;2132121;27;19923;-42
2022/09/21 00:29:30;;;;;;;;;;;;;;;;;;2132142;27;19923;-42
2022/09/21 00:30:31;;;;;;;;;;;;;;;;;;2132389;27;20387;-45
2022/09/21 00:31:32;;;;;;;;;;;;;;;;;;2131956;27;20351;-46
2022/09/21 00:32:33;;;;;;;;;;;;;;;;;;2131885;27;20330;-45
2022/09/21 00:33:34;;;;;;;;;;;;;;;;;;2131866;27;19923;-46
2022/09/21 00:34:35;;;;;;;;;;;;;;;;;;2131934;27;19926;-47
2022/09/21 00:35:36;;;;;;;;;;;;;;;;;;2131839;27;19927;-45
2022/09/21 00:36:37;;;;;;;;;;;;;;;;;;2132016;27;19935;-45
2022/09/21 00:37:38;;;;;;;;;;;;;;;;;;2132040;27;20399;-42
2022/09/21 00:38:39;;;;;;;;;;;;;;;;;;2132071;27;19930;-42
2022/09/21 00:39:39;;;;;;;;;;;;;;;;;;2131824;27;20021;-42
2022/09/21 00:40:40;;;;;;;;;;;;;;;;;;2131975;27;20002;-42
2022/09/21 00:41:41;;;;;;;;;;;;;;;;;;2131896;27;20228;-42
2022/09/21 00:42:42;;;;;;;;;;;;;;;;;;2131819;27;20430;-42
2022/09/21 00:43:43;;;;;;;;;;;;;;;;;;2131864;27;19929;-42
2022/09/21 00:44:44;;;;;;;;;;;;;;;;;;2131855;27;19976;-42
2022/09/21 00:45:44;;;;;;;;;;;;;;;;;;2131911;27;19923;-42
2022/09/21 00:46:45;;;;;;;;;;;;;;;;;;2131554;27;19923;-42
2022/09/21 00:47:46;;;;;;;;;;;;;;;;;;2131728;27;19977;-42
2022/09/21 00:48:47;;;;;;;;;;;;;;;;;;2131972;27;19923;-42
2022/09/21 00:49:48;;;;;;;;;;;;;;;;;;2131842;27;19955;-42
2022/09/21 00:50:49;;;;;;;;;;;;;;;;;;2131872;27;19923;-42
2022/09/21 00:51:50;;;;;;;;;;;;;;;;;;2131798;27;19930;-42
2022/09/21 00:52:51;;;;;;;;;;;;;;;;;;2131824;27;19927;-42
2022/09/21 00:53:51;;;;;;;;;;;;;;;;;;2131779;27;20025;-42
2022/09/21 00:54:52;;;;;;;;;;;;;;;;;;2131923;27;19973;-42
2022/09/21 00:55:54;;;;;;;;;;;;;;;;;;2131811;27;20345;-42
2022/09/21 00:56:55;;;;;;;;;;;;;;;;;;2132084;27;19923;-45
2022/09/21 00:57:55;;;;;;;;;;;;;;;;;;2131784;27;20277;-45
2022/09/21 00:58:56;;;;;;;;;;;;;;;;;;2131806;27;20394;-46
2022/09/21 00:59:57;;;;;;;;;;;;;;;;;;2131857;27;20021;-46
2022/09/21 01:00:58;;;;;;;;;;;;;;;;;;2131865;27;19931;-45
2022/09/21 01:01:59;;;;;;;;;;;;;;;;;;2131777;27;20010;-45
2022/09/21 01:03:00;;;;;;;;;;;;;;;;;;2131773;27;20456;-45
2022/09/21 01:04:01;;;;;;;;;;;;;;;;;;2133407;27;19930;-45
2022/09/21 01:05:02;;;;;;;;;;;;;;;;;;2133314;27;20283;-45
2022/09/21 01:06:02;;;;;;;;;;;;;;;;;;2133356;27;20017;-45
2022/09/21 01:07:04;;;;;;;;;;;;;;;;;;2133186;27;19927;-45
2022/09/21 01:08:05;;;;;;;;;;;;;;;;;;2133353;27;19927;-46
2022/09/21 01:09:06;;;;;;;;;;;;;;;;;;2133671;27;19927;-45
2022/09/21 01:10:08;;;;;;;;;;;;;;;;;;2133335;27;19927;-45
2022/09/21 01:11:09;;;;;;;;;;;;;;;;;;2133207;27;19923;-45
2022/09/21 01:12:09;;;;;;;;;;;;;;;;;;2133495;27;19930;-45
2022/09/21 01:13:10;;;;;;;;;;;;;;;;;;2133449;27;20354;-46
2022/09/21 01:14:11;;;;;;;;;;;;;;;;;;2133229;27;19929;-45
2022/09/21 01:15:12;;;;;;;;;;;;;;;;;;2133395;27;20026;-44
2022/09/21 01:16:13;;;;;;;;;;;;;;;;;;2133221;27;19923;-44
2022/09/21 01:17:14;;;;;;;;;;;;;;;;;;2133199;27;19923;-45
2022/09/21 01:18:15;;;;;;;;;;;;;;;;;;2133294;27;19923;-45
2022/09/21 01:19:16;;;;;;;;;;;;;;;;;;2133184;27;19931;-45
2022/09/21 01:20:16;;;;;;;;;;;;;;;;;;2133214;27;19961;-45
2022/09/21 01:21:17;;;;;;;;;;;;;;;;;;2133257;27;20037;-45
2022/09/21 01:22:18;;;;;;;;;;;;;;;;;;2133141;27;20022;-46
2022/09/21 01:23:19;;;;;;;;;;;;;;;;;;2133102;27;19966;-45
2022/09/21 01:24:20;;;;;;;;;;;;;;;;;;2133274;27;19983;-46
2022/09/21 01:25:23;;;;;;;;;;;;;;;;;;2133127;27;19929;-45
2022/09/21 01:26:23;;;;;;;;;;;;;;;;;;2133442;27;19976;-42
2022/09/21 01:27:24;;;;;;;;;;;;;;;;;;2133051;27;19923;-42
2022/09/21 01:28:28;;;;;;;;;;;;;;;;;;2133355;27;19987;-42
2022/09/21 01:29:30;;;;;;;;;;;;;;;;;;2133175;27;20265;-42
2022/09/21 01:30:30;;;;;;;;;;;;;;;;;;2133314;27;19968;-42
2022/09/21 01:31:31;;;;;;;;;;;;;;;;;;2133193;27;19923;-42
2022/09/21 01:32:32;;;;;;;;;;;;;;;;;;2133296;27;19923;-42
2022/09/21 01:33:34;;;;;;;;;;;;;;;;;;2133073;27;19930;-42
2022/09/21 01:34:34;;;;;;;;;;;;;;;;;;2133278;27;19923;-42
2022/09/21 01:35:35;;;;;;;;;;;;;;;;;;2133040;27;20034;-42
2022/09/21 01:36:36;;;;;;;;;;;;;;;;;;2133062;27;19927;-42
2022/09/21 01:37:37;;;;;;;;;;;;;;;;;;2133279;27;20362;-42
2022/09/21 01:38:38;;;;;;;;;;;;;;;;;;2133241;27;19931;-42
2022/09/21 01:39:39;;;;;;;;;;;;;;;;;;2133187;27;19931;-42
2022/09/21 01:40:40;;;;;;;;;;;;;;;;;;2133079;27;20376;-42
2022/09/21 01:41:41;;;;;;;;;;;;;;;;;;2132789;27;20376;-42
2022/09/21 01:42:42;;;;;;;;;;;;;;;;;;2132921;27;19967;-42
2022/09/21 01:43:43;;;;;;;;;;;;;;;;;;2132999;27;20018;-42
2022/09/21 01:44:44;;;;;;;;;;;;;;;;;;2133129;27;19923;-42
2022/09/21 01:45:45;;;;;;;;;;;;;;;;;;2132984;27;19923;-42
2022/09/21 01:46:46;;;;;;;;;;;;;;;;;;2132934;27;19930;-42
2022/09/21 01:47:47;;;;;;;;;;;;;;;;;;2132850;27;19923;-42
2022/09/21 01:48:48;;;;;;;;;;;;;;;;;;2133079;27;20264;-42
2022/09/21 01:49:49;;;;;;;;;;;;;;;;;;2132924;27;19927;-42
2022/09/21 01:50:50;;;;;;;;;;;;;;;;;;2133100;27;19923;-42
2022/09/21 01:51:50;;;;;;;;;;;;;;;;;;2132950;27;19978;-42
2022/09/21 01:52:51;;;;;;;;;;;;;;;;;;2132983;27;20029;-42
2022/09/21 01:53:52;;;;;;;;;;;;;;;;;;2133061;27;19923;-42
2022/09/21 01:54:53;;;;;;;;;;;;;;;;;;2132940;27;20456;-42
2022/09/21 01:55:53;;;;;;;;;;;;;;;;;;2133088;27;19927;-42
2022/09/21 01:56:54;;;;;;;;;;;;;;;;;;2132884;27;19923;-42
2022/09/21 01:57:55;;;;;;;;;;;;;;;;;;2133024;27;19975;-42
2022/09/21 01:58:56;;;;;;;;;;;;;;;;;;2132895;27;19927;-42
2022/09/21 01:59:57;;;;;;;;;;;;;;;;;;2132936;27;20303;-42
2022/09/21 02:00:58;;;;;;;;;;;;;;;;;;2132944;27;19923;-42
2022/09/21 02:01:58;;;;;;;;;;;;;;;;;;2132857;27;19923;-42
2022/09/21 02:02:59;;;;;;;;;;;;;;;;;;2132881;27;19965;-42
2022/09/21 02:04:00;;;;;;;;;;;;;;;;;;2132966;27;19927;-42
2022/09/21 02:05:01;;;;;;;;;;;;;;;;;;2133054;27;19923;-42
2022/09/21 02:06:02;;;;;;;;;;;;;;;;;;2132871;27;19950;-42
2022/09/21 02:07:03;;;;;;;;;;;;;;;;;;2133009;27;20291;-42
2022/09/21 02:08:03;;;;;;;;;;;;;;;;;;2132807;27;19927;-42
2022/09/21 02:09:04;;;;;;;;;;;;;;;;;;2132855;27;20014;-42
2022/09/21 02:10:05;;;;;;;;;;;;;;;;;;2132878;27;19930;-42
2022/09/21 02:11:06;;;;;;;;;;;;;;;;;;2132809;27;19935;-42
2022/09/21 02:12:08;;;;;;;;;;;;;;;;;;2132746;27;19946;-42
2022/09/21 02:13:09;;;;;;;;;;;;;;;;;;2132903;27;19923;-42
2022/09/21 02:14:10;;;;;;;;;;;;;;;;;;2132775;27;19923;-42
2022/09/21 02:15:11;;;;;;;;;;;;;;;;;;2131743;27;19943;-42
2022/09/21 02:16:11;;;;;;;;;;;;;;;;;;2133064;27;19930;-42
2022/09/21 02:17:13;;;;;;;;;;;;;;;;;;2132792;27;19923;-42
2022/09/21 02:18:14;;;;;;;;;;;;;;;;;;2132946;27;19923;-42
2022/09/21 02:19:15;;;;;;;;;;;;;;;;;;2132806;27;19977;-42
2022/09/21 02:20:17;;;;;;;;;;;;;;;;;;2132995;27;20021;-42
2022/09/21 02:21:18;;;;;;;;;;;;;;;;;;2132756;27;19927;-42
2022/09/21 02:22:18;;;;;;;;;;;;;;;;;;2133155;27;20229;-46
2022/09/21 02:23:21;;;;;;;;;;;;;;;;;;2132813;27;19982;-44
2022/09/21 02:24:22;;;;;;;;;;;;;;;;;;2132941;27;19930;-45
2022/09/21 02:25:23;;;;;;;;;;;;;;;;;;2132796;27;19923;-45
2022/09/21 02:26:23;;;;;;;;;;;;;;;;;;2132860;27;19930;-46
2022/09/21 02:27:24;;;;;;;;;;;;;;;;;;2132912;27;20396;-45
2022/09/21 02:28:26;;;;;;;;;;;;;;;;;;2132741;27;19974;-47
2022/09/21 02:29:26;;;;;;;;;;;;;;;;;;2132808;27;19927;-45
2022/09/21 02:30:27;;;;;;;;;;;;;;;;;;2132804;27;20404;-47
2022/09/21 02:31:29;;;;;;;;;;;;;;;;;;2132851;27;19929;-45
2022/09/21 02:32:32;;;;;;;;;;;;;;;;;;2132734;27;19966;-45
2022/09/21 02:33:32;;;;;;;;;;;;;;;;;;2132838;27;19930;-44
2022/09/21 02:34:33;;;;;;;;;;;;;;;;;;2132974;27;19930;-45
2022/09/21 02:35:35;;;;;;;;;;;;;;;;;;2132704;27;19927;-45
2022/09/21 02:36:36;;;;;;;;;;;;;;;;;;2132631;27;19930;-45
2022/09/21 02:37:36;;;;;;;;;;;;;;;;;;2132710;27;19965;-45
2022/09/21 02:38:37;;;;;;;;;;;;;;;;;;2132771;27;19975;-44
2022/09/21 02:39:38;;;;;;;;;;;;;;;;;;2132462;27;19935;-45
2022/09/21 02:40:39;;;;;;;;;;;;;;;;;;2132846;27;19924;-44
2022/09/21 02:41:40;;;;;;;;;;;;;;;;;;2132572;27;19923;-46
2022/09/21 02:42:41;;;;;;;;;;;;;;;;;;2132736;27;19971;-44
2022/09/21 02:43:42;;;;;;;;;;;;;;;;;;2132738;27;19923;-46
2022/09/21 02:44:44;;;;;;;;;;;;;;;;;;2132761;27;19927;-45
2022/09/21 02:45:45;;;;;;;;;;;;;;;;;;2132734;27;19952;-44
2022/09/21 02:46:46;;;;;;;;;;;;;;;;;;2132670;27;19952;-45
2022/09/21 02:47:47;;;;;;;;;;;;;;;;;;2132455;27;19958;-46
2022/09/21 02:48:48;;;;;;;;;;;;;;;;;;2132579;27;19963;-45
2022/09/21 02:49:50;;;;;;;;;;;;;;;;;;2132872;27;19923;-43
2022/09/21 02:50:51;;;;;;;;;;;;;;;;;;2132804;27;19930;-45
2022/09/21 02:51:52;;;;;;;;;;;;;;;;;;2132665;27;20379;-44
2022/09/21 02:52:53;;;;;;;;;;;;;;;;;;2132634;27;20470;-44
2022/09/21 02:53:53;;;;;;;;;;;;;;;;;;2132720;27;20104;-44
2022/09/21 02:54:54;;;;;;;;;;;;;;;;;;2132618;27;19930;-45
2022/09/21 02:55:55;;;;;;;;;;;;;;;;;;2132601;27;19927;-44
2022/09/21 02:56:57;;;;;;;;;;;;;;;;;;2132368;27;19931;-45
2022/09/21 02:57:57;;;;;;;;;;;;;;;;;;2132594;27;19927;-46
2022/09/21 02:58:58;;;;;;;;;;;;;;;;;;2132483;27;19930;-45
2022/09/21 02:59:59;;;;;;;;;;;;;;;;;;2132448;27;19971;-44
2022/09/21 03:01:00;;;;;;;;;;;;;;;;;;2132547;27;19923;-45
2022/09/21 03:02:01;;;;;;;;;;;;;;;;;;2132401;27;19923;-45
2022/09/21 03:03:03;;;;;;;;;;;;;;;;;;2132419;27;19966;-44
2022/09/21 03:04:04;;;;;;;;;;;;;;;;;;2132549;27;20287;-44
2022/09/21 03:05:05;;;;;;;;;;;;;;;;;;2132667;27;19961;-46
2022/09/21 03:06:05;;;;;;;;;;;;;;;;;;2132384;27;19923;-45
2022/09/21 03:07:06;;;;;;;;;;;;;;;;;;2132611;27;20026;-44
2022/09/21 03:08:07;;;;;;;;;;;;;;;;;;2132513;27;19944;-45
2022/09/21 03:09:08;;;;;;;;;;;;;;;;;;2132405;27;19985;-44
2022/09/21 03:10:09;;;;;;;;;;;;;;;;;;2132603;27;19957;-44
2022/09/21 03:11:10;;;;;;;;;;;;;;;;;;2132262;27;20295;-45
2022/09/21 03:12:10;;;;;;;;;;;;;;;;;;2132545;27;19923;-45
2022/09/21 03:13:11;;;;;;;;;;;;;;;;;;2132449;27;20367;-45
2022/09/21 03:14:12;;;;;;;;;;;;;;;;;;2132547;27;19930;-44
2022/09/21 03:15:15;;;;;;;;;;;;;;;;;;2132389;27;20277;-45
2022/09/21 03:16:16;;;;;;;;;;;;;;;;;;2132447;27;20063;-45
2022/09/21 03:17:17;;;;;;;;;;;;;;;;;;2132378;27;20022;-45
2022/09/21 03:18:17;;;;;;;;;;;;;;;;;;2132341;27;19923;-45
2022/09/21 03:19:18;;;;;;;;;;;;;;;;;;2132592;27;19976;-42
2022/09/21 03:20:19;;;;;;;;;;;;;;;;;;2132537;27;19927;-42
2022/09/21 03:21:20;;;;;;;;;;;;;;;;;;2132286;27;19923;-42
2022/09/21 03:22:21;;;;;;;;;;;;;;;;;;2132396;27;19930;-42
2022/09/21 03:23:22;;;;;;;;;;;;;;;;;;2132370;27;19923;-42
2022/09/21 03:25:38;;;;;;;;;;;;;;;;;;2131536;27;19923;-42
2022/09/21 03:26:40;;;;;;;;;;;;;;;;;;2131918;27;19966;-43
2022/09/21 03:27:41;;;;;;;;;;;;;;;;;;2132296;27;20403;-42
2022/09/21 03:28:42;;;;;;;;;;;;;;;;;;2132381;27;19923;-42
2022/09/21 03:29:43;;;;;;;;;;;;;;;;;;2132420;27;19923;-42
2022/09/21 03:30:44;;;;;;;;;;;;;;;;;;2132702;27;20291;-42
2022/09/21 03:31:45;;;;;;;;;;;;;;;;;;2132464;27;20056;-42
2022/09/21 03:32:46;;;;;;;;;;;;;;;;;;2132403;27;20381;-42
2022/09/21 03:33:47;;;;;;;;;;;;;;;;;;2132317;27;19978;-42
2022/09/21 03:34:47;;;;;;;;;;;;;;;;;;2124070;28;19923;-45
2022/09/21 03:35:48;;;;;;;;;;;;;;;;;;2129346;27;20076;-45
2022/09/21 03:36:50;;;;;;;;;;;;;;;;;;2132221;27;19946;-46
2022/09/21 03:37:51;;;;;;;;;;;;;;;;;;2132266;27;19927;-45
2022/09/21 03:38:52;;;;;;;;;;;;;;;;;;2132352;27;19923;-46
2022/09/21 03:39:53;;;;;;;;;;;;;;;;;;2132416;27;19958;-45
2022/09/21 03:40:56;;;;;;;;;;;;;;;;;;2132353;27;19966;-45
2022/09/21 03:41:57;;;;;;;;;;;;;;;;;;2132219;27;19927;-45
2022/09/21 03:42:58;;;;;;;;;;;;;;;;;;2132417;27;20018;-46
2022/09/21 03:43:59;;;;;;;;;;;;;;;;;;2132271;27;19937;-46
2022/09/21 03:45:00;;;;;;;;;;;;;;;;;;2132230;27;20443;-47
2022/09/21 03:46:01;;;;;;;;;;;;;;;;;;2132203;27;20374;-45
2022/09/21 03:47:02;;;;;;;;;;;;;;;;;;2132131;27;20380;-45
2022/09/21 03:48:03;;;;;;;;;;;;;;;;;;2132209;27;19929;-45
2022/09/21 03:49:03;;;;;;;;;;;;;;;;;;2132314;27;20353;-45
2022/09/21 03:50:04;;;;;;;;;;;;;;;;;;2132261;27;19949;-45
2022/09/21 03:51:09;;;;;;;;;;;;;;;;;;2132220;27;19947;-44
2022/09/21 03:52:11;;;;;;;;;;;;;;;;;;2132264;27;19933;-45
2022/09/21 03:53:11;;;;;;;;;;;;;;;;;;2132157;27;20254;-46
2022/09/21 03:54:12;;;;;;;;;;;;;;;;;;2132240;27;20068;-46
2022/09/21 03:55:13;;;;;;;;;;;;;;;;;;2132367;27;19923;-46
2022/09/21 03:56:14;;;;;;;;;;;;;;;;;;2132180;27;19948;-45
2022/09/21 03:57:15;;;;;;;;;;;;;;;;;;2132202;27;20372;-45
2022/09/21 03:58:16;;;;;;;;;;;;;;;;;;2132292;27;19934;-45
2022/09/21 03:59:16;;;;;;;;;;;;;;;;;;2132428;27;19966;-45
2022/09/21 04:00:17;;;;;;;;;;;;;;;;;;2132031;27;20011;-45
2022/09/21 04:01:18;;;;;;;;;;;;;;;;;;2132263;27;19977;-42
2022/09/21 04:02:19;;;;;;;;;;;;;;;;;;2132087;27;19927;-42
2022/09/21 04:03:20;;;;;;;;;;;;;;;;;;2132188;27;19976;-43
2022/09/21 04:04:21;;;;;;;;;;;;;;;;;;2132056;27;20013;-43
2022/09/21 04:05:21;;;;;;;;;;;;;;;;;;2132135;27;19923;-43
2022/09/21 04:06:22;;;;;;;;;;;;;;;;;;2132117;27;19937;-43
2022/09/21 04:07:23;;;;;;;;;;;;;;;;;;2131984;27;20287;-43
2022/09/21 04:08:24;;;;;;;;;;;;;;;;;;2132059;27;19970;-43
2022/09/21 04:09:25;;;;;;;;;;;;;;;;;;2131972;27;19931;-43
2022/09/21 04:10:32;;;;;;;;;;;;;;;;;;2132231;27;19950;-43
2022/09/21 04:11:32;;;;;;;;;;;;;;;;;;2132033;27;19923;-46
2022/09/21 04:12:33;;;;;;;;;;;;;;;;;;2132015;27;19929;-46
2022/09/21 04:13:34;;;;;;;;;;;;;;;;;;2132205;27;19923;-45
2022/09/21 04:14:36;;;;;;;;;;;;;;;;;;2132074;27;19960;-46
2022/09/21 04:15:36;;;;;;;;;;;;;;;;;;2132242;27;19926;-45
2022/09/21 04:16:37;;;;;;;;;;;;;;;;;;2131957;27;20340;-45
2022/09/21 04:17:38;;;;;;;;;;;;;;;;;;2132156;27;20040;-44
2022/09/21 04:18:39;;;;;;;;;;;;;;;;;;2132112;27;20010;-42
2022/09/21 04:19:40;;;;;;;;;;;;;;;;;;2132786;27;19930;-42
2022/09/21 04:20:40;;;;;;;;;;;;;;;;;;2132180;27;19930;-44
2022/09/21 04:21:41;;;;;;;;;;;;;;;;;;2132022;27;19927;-46
2022/09/21 04:22:43;;;;;;;;;;;;;;;;;;2132052;27;20260;-45
2022/09/21 04:23:44;;;;;;;;;;;;;;;;;;2132125;27;19984;-45
2022/09/21 04:24:45;;;;;;;;;;;;;;;;;;2131844;27;20363;-45
2022/09/21 04:25:46;;;;;;;;;;;;;;;;;;2132147;27;19923;-43
2022/09/21 04:26:47;;;;;;;;;;;;;;;;;;2132187;27;19930;-47
2022/09/21 04:27:48;;;;;;;;;;;;;;;;;;2131874;27;20606;-45
2022/09/21 04:28:48;;;;;;;;;;;;;;;;;;2132138;27;19923;-43
2022/09/21 04:29:49;;;;;;;;;;;;;;;;;;2131889;27;20014;-43
2022/09/21 04:30:50;;;;;;;;;;;;;;;;;;2132385;27;19923;-45
2022/09/21 04:31:51;;;;;;;;;;;;;;;;;;2132074;27;19923;-43
2022/09/21 04:32:52;;;;;;;;;;;;;;;;;;2132063;27;19930;-45
2022/09/21 04:33:53;;;;;;;;;;;;;;;;;;2131925;27;19926;-45
2022/09/21 04:34:54;;;;;;;;;;;;;;;;;;2131940;27;19933;-45
2022/09/21 04:35:55;;;;;;;;;;;;;;;;;;2131955;27;19923;-45
2022/09/21 04:36:57;;;;;;;;;;;;;;;;;;2132006;27;20124;-45
2022/09/21 04:37:58;;;;;;;;;;;;;;;;;;2131003;27;19927;-45
2022/09/21 04:38:59;;;;;;;;;;;;;;;;;;2131859;27;19972;-46
2022/09/21 04:40:00;;;;;;;;;;;;;;;;;;2131829;27;20396;-46
2022/09/21 04:41:02;;;;;;;;;;;;;;;;;;2131868;27;19927;-45
2022/09/21 04:42:03;;;;;;;;;;;;;;;;;;2131935;27;19923;-45
2022/09/21 04:43:04;;;;;;;;;;;;;;;;;;2131800;27;19972;-45
2022/09/21 04:44:05;;;;;;;;;;;;;;;;;;2132088;27;19987;-47
2022/09/21 04:45:05;;;;;;;;;;;;;;;;;;2131984;27;19967;-46
2022/09/21 04:46:06;;;;;;;;;;;;;;;;;;2131849;27;19933;-45
2022/09/21 04:47:07;;;;;;;;;;;;;;;;;;2131900;27;19923;-45
2022/09/21 04:48:08;;;;;;;;;;;;;;;;;;2132087;27;19930;-45
2022/09/21 04:49:09;;;;;;;;;;;;;;;;;;2132197;27;20348;-43
2022/09/21 04:50:10;;;;;;;;;;;;;;;;;;2131806;27;19930;-43
2022/09/21 04:51:11;;;;;;;;;;;;;;;;;;2132156;27;19950;-45
2022/09/21 04:52:12;;;;;;;;;;;;;;;;;;2131706;27;19923;-45
2022/09/21 04:53:17;;;;;;;;;;;;;;;;;;2131832;27;19926;-45
2022/09/21 04:54:18;;;;;;;;;;;;;;;;;;2131761;27;19929;-46
2022/09/21 04:55:19;;;;;;;;;;;;;;;;;;2132354;27;20470;-46
2022/09/21 04:56:19;;;;;;;;;;;;;;;;;;2131698;27;19923;-46
2022/09/21 04:57:20;;;;;;;;;;;;;;;;;;2131877;27;20030;-46
2022/09/21 04:58:21;;;;;;;;;;;;;;;;;;2131794;27;19923;-45
2022/09/21 04:59:25;;;;;;;;;;;;;;;;;;2131896;27;19924;-46
2022/09/21 05:00:25;;;;;;;;;;;;;;;;;;2132026;27;19968;-45
2022/09/21 05:01:26;;;;;;;;;;;;;;;;;;2131916;27;19934;-45
2022/09/21 05:02:27;;;;;;;;;;;;;;;;;;2131739;27;20399;-46
2022/09/21 05:03:30;;;;;;;;;;;;;;;;;;2131647;27;19930;-45
2022/09/21 05:04:31;;;;;;;;;;;;;;;;;;2131730;27;20384;-45
2022/09/21 05:05:32;;;;;;;;;;;;;;;;;;2131679;27;19952;-45
2022/09/21 05:06:33;;;;;;;;;;;;;;;;;;2132075;27;19923;-43
2022/09/21 05:07:33;;;;;;;;;;;;;;;;;;2131749;27;20490;-43
2022/09/21 05:10:03;;;;;;;;;;;;;;;;;;2132465;27;19927;-45
2022/09/21 05:11:04;;;;;;;;;;;;;;;;;;2131649;27;19930;-46
2022/09/21 05:12:05;;;;;;;;;;;;;;;;;;2131682;27;19923;-46
2022/09/21 05:13:06;;;;;;;;;;;;;;;;;;2131967;27;19927;-45
2022/09/21 05:14:06;;;;;;;;;;;;;;;;;;2131834;27;20367;-45
2022/09/21 05:15:07;;;;;;;;;;;;;;;;;;2131864;27;19967;-42
2022/09/21 05:16:08;;;;;;;;;;;;;;;;;;2131687;27;19923;-43
2022/09/21 05:17:09;;;;;;;;;;;;;;;;;;2131625;27;19923;-43
2022/09/21 05:18:09;;;;;;;;;;;;;;;;;;2131870;27;19923;-45
2022/09/21 05:19:10;;;;;;;;;;;;;;;;;;2132150;27;19930;-45
2022/09/21 05:20:11;;;;;;;;;;;;;;;;;;2131662;27;20410;-45
2022/09/21 05:21:12;;;;;;;;;;;;;;;;;;2131575;27;20012;-46
2022/09/21 05:22:13;;;;;;;;;;;;;;;;;;2131764;27;19930;-46
2022/09/21 05:23:14;;;;;;;;;;;;;;;;;;2131575;27;19927;-46
2022/09/21 05:24:17;;;;;;;;;;;;;;;;;;2131993;27;19958;-46
2022/09/21 05:25:18;;;;;;;;;;;;;;;;;;2131942;27;19929;-47
2022/09/21 05:26:18;;;;;;;;;;;;;;;;;;2131089;27;20005;-46
2022/09/21 05:27:19;;;;;;;;;;;;;;;;;;2131726;27;19971;-47
2022/09/21 05:28:20;;;;;;;;;;;;;;;;;;2131580;27;19946;-44
2022/09/21 05:29:21;;;;;;;;;;;;;;;;;;2131784;27;19975;-45
2022/09/21 05:30:22;;;;;;;;;;;;;;;;;;2131601;27;20265;-44
2022/09/21 05:31:23;;;;;;;;;;;;;;;;;;2131585;27;20018;-45
2022/09/21 05:32:24;;;;;;;;;;;;;;;;;;2131665;27;20030;-44
2022/09/21 05:33:25;;;;;;;;;;;;;;;;;;2131887;27;19923;-44
2022/09/21 05:34:26;;;;;;;;;;;;;;;;;;2131581;27;19927;-45
2022/09/21 05:35:27;;;;;;;;;;;;;;;;;;2131894;27;20019;-46
2022/09/21 05:36:28;;;;;;;;;;;;;;;;;;2132051;27;19923;-45
2022/09/21 05:37:29;;;;;;;;;;;;;;;;;;2131530;27;20328;-45
2022/09/21 05:38:30;;;;;;;;;;;;;;;;;;2131561;27;19930;-44
2022/09/21 05:39:31;;;;;;;;;;;;;;;;;;2131965;27;19923;-47
2022/09/21 05:40:31;;;;;;;;;;;;;;;;;;2132117;27;20299;-47
2022/09/21 05:41:32;;;;;;;;;;;;;;;;;;2131462;27;20354;-46
2022/09/21 05:42:33;;;;;;;;;;;;;;;;;;2131609;27;19962;-48
2022/09/21 05:43:34;;;;;;;;;;;;;;;;;;2131493;27;20292;-46
2022/09/21 05:44:35;;;;;;;;;;;;;;;;;;2131684;27;19933;-49
2022/09/21 05:45:36;;;;;;;;;;;;;;;;;;2131900;27;19923;-48
2022/09/21 05:46:36;;;;;;;;;;;;;;;;;;2131458;27;20329;-51
2022/09/21 05:47:38;;;;;;;;;;;;;;;;;;2131983;27;19959;-50
2022/09/21 05:48:39;;;;;;;;;;;;;;;;;;2131648;27;19923;-45
2022/09/21 05:49:40;;;;;;;;;;;;;;;;;;2132633;27;19923;-45
2022/09/21 05:50:41;;;;;;;;;;;;;;;;;;2132911;27;19945;-46
2022/09/21 05:51:41;;;;;;;;;;;;;;;;;;2132847;27;19976;-45
2022/09/21 05:52:42;;;;;;;;;;;;;;;;;;2133163;27;20260;-47
2022/09/21 05:53:43;;;;;;;;;;;;;;;;;;2133007;27;19930;-48
2022/09/21 05:54:44;;;;;;;;;;;;;;;;;;2132936;27;19923;-47
2022/09/21 05:55:44;;;;;;;;;;;;;;;;;;2133218;27;19923;-50
2022/09/21 05:56:45;;;;;;;;;;;;;;;;;;2133081;27;19967;-47
2022/09/21 05:57:46;;;;;;;;;;;;;;;;;;2132911;27;20058;-48
2022/09/21 05:58:47;;;;;;;;;;;;;;;;;;2133041;27;20289;-48
2022/09/21 05:59:48;;;;;;;;;;;;;;;;;;2132924;27;20368;-47
2022/09/21 06:00:49;;;;;;;;;;;;;;;;;;2133103;27;20007;-48
2022/09/21 06:01:50;;;;;;;;;;;;;;;;;;2132821;27;20372;-48
2022/09/21 06:02:51;;;;;;;;;;;;;;;;;;2132874;27;20325;-47
2022/09/21 06:03:51;;;;;;;;;;;;;;;;;;2133061;27;19923;-44
2022/09/21 06:04:53;;;;;;;;;;;;;;;;;;2133512;27;19934;-44
2022/09/21 06:05:54;;;;;;;;;;;;;;;;;;2132908;27;20399;-43
2022/09/21 06:06:55;;;;;;;;;;;;;;;;;;2133142;27;19962;-47
2022/09/21 06:07:55;;;;;;;;;;;;;;;;;;2132937;27;20381;-47
2022/09/21 06:08:56;;;;;;;;;;;;;;;;;;2133078;27;20339;-47
2022/09/21 06:09:57;;;;;;;;;;;;;;;;;;2133028;27;19931;-43
2022/09/21 06:10:58;;;;;;;;;;;;;;;;;;2133214;27;19945;-47
2022/09/21 06:11:59;;;;;;;;;;;;;;;;;;2132738;27;19923;-47
2022/09/21 06:13:00;;;;;;;;;;;;;;;;;;2133372;27;19930;-43
2022/09/21 06:14:00;;;;;;;;;;;;;;;;;;2133067;27;19970;-43
2022/09/21 06:15:01;;;;;;;;;;;;;;;;;;2132850;27;19954;-43
2022/09/21 06:16:02;;;;;;;;;;;;;;;;;;2132990;27;20284;-44
2022/09/21 06:17:03;;;;;;;;;;;;;;;;;;2132763;27;20374;-44
2022/09/21 06:18:04;;;;;;;;;;;;;;;;;;2132955;27;19923;-46
2022/09/21 06:19:05;;;;;;;;;;;;;;;;;;2133065;27;20025;-43
2022/09/21 06:20:06;;;;;;;;;;;;;;;;;;2132766;27;20043;-43
2022/09/21 06:21:07;;;;;;;;;;;;;;;;;;2133363;27;20288;-43
2022/09/21 06:22:07;;;;;;;;;;;;;;;;;;2132998;27;20034;-43
2022/09/21 06:23:08;;;;;;;;;;;;;;;;;;2132800;27;20396;-44
2022/09/21 06:24:09;;;;;;;;;;;;;;;;;;2132740;27;19950;-43
2022/09/21 06:25:10;;;;;;;;;;;;;;;;;;2132920;27;19984;-43
2022/09/21 06:26:11;;;;;;;;;;;;;;;;;;2132816;27;20347;-43
2022/09/21 06:27:12;;;;;;;;;;;;;;;;;;2133101;27;20191;-43
2022/09/21 06:28:12;;;;;;;;;;;;;;;;;;2132623;27;19930;-44
2022/09/21 06:29:13;;;;;;;;;;;;;;;;;;2133317;27;19949;-43
2022/09/21 06:30:14;;;;;;;;;;;;;;;;;;2132844;27;19923;-43
2022/09/21 06:31:15;;;;;;;;;;;;;;;;;;2132759;27;19922;-43
2022/09/21 06:32:16;;;;;;;;;;;;;;;;;;2132867;27;19930;-43
2022/09/21 06:33:19;;;;;;;;;;;;;;;;;;2132594;27;19970;-43
2022/09/21 06:34:20;;;;;;;;;;;;;;;;;;2132933;27;20265;-46
2022/09/21 06:35:21;;;;;;;;;;;;;;;;;;2132785;27;20018;-47
2022/09/21 06:36:22;;;;;;;;;;;;;;;;;;2132701;27;20332;-46
2022/09/21 06:37:23;;;;;;;;;;;;;;;;;;2132836;27;20013;-48
2022/09/21 06:38:24;;;;;;;;;;;;;;;;;;2132833;27;20329;-46
2022/09/21 06:39:25;;;;;;;;;;;;;;;;;;2132810;27;19923;-47
2022/09/21 06:40:25;;;;;;;;;;;;;;;;;;2132817;27;20018;-44
2022/09/21 06:41:27;;;;;;;;;;;;;;;;;;2132697;27;19927;-43
2022/09/21 06:42:28;;;;;;;;;;;;;;;;;;2133225;27;20371;-48
2022/09/21 06:43:28;;;;;;;;;;;;;;;;;;2132650;27;19923;-46
2022/09/21 06:44:29;;;;;;;;;;;;;;;;;;2132772;27;19939;-46
2022/09/21 06:45:30;;;;;;;;;;;;;;;;;;2133362;27;19930;-46
2022/09/21 06:46:31;;;;;;;;;;;;;;;;;;2132513;27;19949;-47
2022/09/21 06:47:32;;;;;;;;;;;;;;;;;;2133149;27;19948;-43
2022/09/21 06:48:33;;;;;;;;;;;;;;;;;;2132877;27;19955;-43
2022/09/21 06:49:33;;;;;;;;;;;;;;;;;;2132748;27;20396;-42
2022/09/21 06:50:34;;;;;;;;;;;;;;;;;;2132567;27;19930;-43
2022/09/21 06:51:35;;;;;;;;;;;;;;;;;;2132463;27;19923;-43
2022/09/21 06:52:37;;;;;;;;;;;;;;;;;;2132590;27;19945;-43
2022/09/21 06:53:38;;;;;;;;;;;;;;;;;;2132826;27;19953;-43
2022/09/21 06:54:39;;;;;;;;;;;;;;;;;;2132648;27;20032;-43
2022/09/21 06:55:40;;;;;;;;;;;;;;;;;;2132623;27;19923;-43
2022/09/21 06:56:42;;;;;;;;;;;;;;;;;;2132856;27;19923;-43
2022/09/21 06:57:42;;;;;;;;;;;;;;;;;;2132827;27;19923;-46
2022/09/21 06:58:45;;;;;;;;;;;;;;;;;;2132490;27;19923;-47
2022/09/21 06:59:46;;;;;;;;;;;;;;;;;;2132750;27;20329;-47